New Britain, Connecticut
Current Conditions -  °F | °C
As of 7:03 AM on Sunday 21 Dec 2014 (Local Time) from KHFD Reporting Station
Light Snow Light Snow  
Wind Chill: 23°   Ceiling: 1900
Heat Index: 31°   Visibility: 3mi
Dew Point: 29°   Wind: 8mph
Humidity: 92%   Direction: 360°N
Pressure: 30.3"   Gusts: NA
Location:  41.67°N, 72.78°W
Report Text: KHFD 211203Z 36007KT 3SM -SN BR SCT007 OVC019 M01/M02 A3030 RMK AO2 P0000 T10061017
Loading
Personal Weather Stations






























Interactive Weather Map New forecast layout! Learn more

10-Day Weather Forecast

Advertisements
Track Severe Weather on mobile